Portada
METAR-TAF:

METAR-TAF

Aeroports :

Aeroport d'Ouagadougou

Ouagadougou, Burkina Faso

latitud: 12-21N, longitud: 001-31W, altitud: 316 m

Observació

L'informe es va fer fa 41 minuts, a les 18:00 UTC
Vent 5 kt del Nord/Nord-Est
Temperatura 31°C
Humitat 21%
Pressió 1011 hPa
Visibilitat: 2500 m
Pols estès

METAR: DFFD 211800Z 02005KT 2500 DU NSC 31/06 Q1011 NOSIG

Hora: 18:41 (18:41 UTC)

Pronòstic

L'informe es va fer fa 1 hora i 41 minuts, a les 17:00 UTC
Pronòstic vàlid del 21 a les 18 UTC al 22 a les 24 UTC
Vent 8 kt del Est/Nord-Est
Visibilitat: 2500 m
Pols estès
Evolucionant progressivament
l' 21 a les 22 UTC al 21 a les 24 UTC
Visibilitat: 6000 m
Evolucionant progressivament
l' 22 a les 05 UTC al 22 a les 07 UTC
Visibilitat: 2500 m
Pols estès
Temporalment
l' 21 a les 06 UTC al 21 a les 10 UTC
Visibilitat: 1400 m
Pols estès

TAF: DFFD 211700Z 2118/2224 06008KT 2500 DU NSC BECMG 2122/2124 6000 NSW BECMG 2205/2207 2500 DU TEMPO 2106/2110 1400 DU

Observacions i pronòstics meteorològics de més de 4000 aeroports (METAR i TAF).

Les estacions disponibles són els punts grocs i vermells al mapa.

Posi el ratolí al punt desitjat per veure el nom de l'estació.

Feu clic per veure les observacions i els pronòstics meteorològics.

Per canviar el mapa: feu clic els botons verds amb una creu de color negre per apropar; al botó verd amb un guió per allunyar la imatge; o en les fletxes verdes per a mapes adjacents.


METAR-TAF: